Pagrindinis puslapis
METAR-TAF:

METAR-TAF

Oro uostai :

Cayman Brac, Kaimanų salos

platuma: 19-41-13N, ilguma: 079-52-58W, Aukštis: 2 m

Dabartinis oras

Ataskaita buvo paskelbta 4 valandos ir 41 minutes, ne 00:00 UTC
Vėjas 6 kt iš Rytų/Pietryčių, svyruoja nuo Rytų ir Pietryčių
Temperatūra 31°C
Drėgmė 71%
Slėgis 1011 hPa
Matomumas 10 km arba daugiau
Mažai debesys ne aukštis 1800 ft, Liūtiniai kamuoliniai debesys.

METAR: MWCB 220000Z 11006KT 080V140 9999 FEW018CB 31/25 Q1011

Laikas: 23:41 (04:41 UTC)

Prognozė

Ataskaita buvo paskelbta 11 valandos ir 41 minutes, ne 17:00 UTC
Prognozė galioja nuo 21 metu 18 UTC su 22 metu 18 UTC
Vėjas 8 kt iš Rytų/Pietryčių
Matomumas 10 km arba daugiau
Mažai debesys ne aukštis 1800 ft
Tikimybė 30% :
Laikinai
nuo 22 metu 08 UTC su 22 metu 12 UTC
Matomumas: 8000 m
Su prošvaistėmis ne aukštis 1400 ft, Liūtiniai kamuoliniai debesys.
perkūnija, lietus,

TAF: MWCB 211700Z 2118/2218 12008KT 9999 FEW018 PROB30 TEMPO 2208/2212 8000 TSRA BKN014CB

Orai ataskaitas ir orų prognozės (METAR, TAF).

turimą stotys yra geltonos ir raudonos taškus žemėlapyje.

Perkelti pele per norėdami pamatyti stoties vardą.

Tada spustelėkite, norėdami matyti oro stebėjimo ir prognozės.

Norėdami pakeisti žemėlapį: spustelėkite ant žalios mygtukų su juodo kryžiaus žemyn,; žalią mygtuką su brūkšneliu, jei norite nutolinti; arba žalių rodyklių gretimoms žemėlapius.


METAR-TAF: